sensor_id;sensor_type;location;lat;lon;timestamp;P1;durP1;ratioP1;P2;durP2;ratioP2
34072;SDS011;20346;52.702;16.886;2023-11-19T10:23:21;379.90;;;352.50;;
34072;SDS011;20346;52.702;16.886;2023-11-19T10:26:07;390.50;;;360.90;;
34072;SDS011;20346;52.702;16.886;2023-11-19T10:28:54;235.40;;;215.20;;
34072;SDS011;20346;52.702;16.886;2023-11-19T10:31:43;184.80;;;169.10;;
34072;SDS011;20346;52.702;16.886;2023-11-19T10:34:41;152.20;;;139.60;;
34072;SDS011;20346;52.702;16.886;2023-11-19T10:37:29;150.90;;;138.40;;
34072;SDS011;20346;52.702;16.886;2023-11-19T10:40:21;130.40;;;119.80;;
34072;SDS011;20346;52.702;16.886;2023-11-19T10:45:54;76.10;;;69.00;;
34072;SDS011;20346;52.702;16.886;2023-11-19T10:48:55;71.30;;;64.50;;
34072;SDS011;20346;52.702;16.886;2023-11-19T10:51:43;73.80;;;67.20;;
34072;SDS011;20346;52.702;16.886;2023-11-19T10:54:31;72.50;;;66.20;;
34072;SDS011;20346;52.702;16.886;2023-11-19T10:57:20;71.50;;;65.10;;
34072;SDS011;20346;52.702;16.886;2023-11-19T11:00:09;67.70;;;61.80;;
34072;SDS011;20346;52.702;16.886;2023-11-19T11:03:02;61.80;;;56.20;;
34072;SDS011;20346;52.702;16.886;2023-11-19T11:05:56;70.70;;;64.90;;
34072;SDS011;20346;52.702;16.886;2023-11-19T11:08:42;54.50;;;49.70;;
34072;SDS011;20346;52.702;16.886;2023-11-19T11:11:28;59.30;;;54.20;;
34072;SDS011;20346;52.702;16.886;2023-11-19T11:14:15;58.10;;;53.70;;
34072;SDS011;20346;52.702;16.886;2023-11-19T11:17:04;732.20;;;677.30;;
34072;SDS011;20346;52.702;16.886;2023-11-19T11:19:53;740.50;;;685.00;;
34072;SDS011;20346;52.702;16.886;2023-11-19T11:22:44;745.00;;;689.30;;
34072;SDS011;20346;52.702;16.886;2023-11-19T11:26:18;734.00;;;679.00;;
34072;SDS011;20346;52.702;16.886;2023-11-19T11:32:43;779.80;;;720.00;;
34072;SDS011;20346;52.702;16.886;2023-11-19T11:38:43;783.30;;;723.50;;
34072;SDS011;20346;52.702;16.886;2023-11-19T11:44:16;750.90;;;694.40;;
34072;SDS011;20346;52.702;16.886;2023-11-19T11:47:02;72.20;;;66.90;;
34072;SDS011;20346;52.702;16.886;2023-11-19T11:49:48;78.80;;;73.10;;
34072;SDS011;20346;52.702;16.886;2023-11-19T11:58:35;125.30;;;116.60;;
34072;SDS011;20346;52.702;16.886;2023-11-19T12:01:23;115.00;;;106.60;;
34072;SDS011;20346;52.702;16.886;2023-11-19T12:04:13;141.60;;;131.80;;
34072;SDS011;20346;52.702;16.886;2023-11-19T12:07:04;144.00;;;134.00;;
34072;SDS011;20346;52.702;16.886;2023-11-19T12:10:12;157.00;;;146.70;;
34072;SDS011;20346;52.702;16.886;2023-11-19T12:12:58;137.20;;;127.80;;
34072;SDS011;20346;52.702;16.886;2023-11-19T12:16:28;157.00;;;146.10;;
34072;SDS011;20346;52.702;16.886;2023-11-19T12:18:54;151.10;;;140.50;;
34072;SDS011;20346;52.702;16.886;2023-11-19T12:21:41;152.10;;;141.70;;
34072;SDS011;20346;52.702;16.886;2023-11-19T12:24:27;162.70;;;151.50;;
34072;SDS011;20346;52.702;16.886;2023-11-19T12:27:13;166.00;;;154.50;;
34072;SDS011;20346;52.702;16.886;2023-11-19T12:30:02;148.90;;;138.60;;
34072;SDS011;20346;52.702;16.886;2023-11-19T12:32:52;176.40;;;164.20;;
34072;SDS011;20346;52.702;16.886;2023-11-19T12:35:45;150.30;;;139.40;;
34072;SDS011;20346;52.702;16.886;2023-11-19T12:38:32;146.00;;;135.30;;
34072;SDS011;20346;52.702;16.886;2023-11-19T12:41:18;155.40;;;144.10;;
34072;SDS011;20346;52.702;16.886;2023-11-19T12:44:10;157.00;;;145.60;;
34072;SDS011;20346;52.702;16.886;2023-11-19T12:49:57;178.90;;;166.10;;
34072;SDS011;20346;52.702;16.886;2023-11-19T12:52:43;131.20;;;121.60;;
34072;SDS011;20346;52.702;16.886;2023-11-19T12:55:29;137.00;;;127.20;;
34072;SDS011;20346;52.702;16.886;2023-11-19T12:58:31;150.20;;;139.60;;
34072;SDS011;20346;52.702;16.886;2023-11-19T13:01:19;245.90;;;229.40;;
34072;SDS011;20346;52.702;16.886;2023-11-19T13:04:16;296.60;;;276.50;;
34072;SDS011;20346;52.702;16.886;2023-11-19T13:07:03;281.70;;;263.00;;
34072;SDS011;20346;52.702;16.886;2023-11-19T13:09:50;314.40;;;293.80;;
34072;SDS011;20346;52.702;16.886;2023-11-19T13:12:39;445.80;;;414.70;;
34072;SDS011;20346;52.702;16.886;2023-11-19T13:15:25;473.90;;;441.00;;
34072;SDS011;20346;52.702;16.886;2023-11-19T13:18:12;421.70;;;392.60;;
34072;SDS011;20346;52.702;16.886;2023-11-19T13:20:59;399.60;;;372.30;;
34072;SDS011;20346;52.702;16.886;2023-11-19T13:32:03;465.30;;;432.40;;
34072;SDS011;20346;52.702;16.886;2023-11-19T13:34:50;449.00;;;417.70;;
34072;SDS011;20346;52.702;16.886;2023-11-19T13:37:35;392.30;;;365.90;;
34072;SDS011;20346;52.702;16.886;2023-11-19T13:40:21;429.60;;;400.10;;
34072;SDS011;20346;52.702;16.886;2023-11-19T13:43:10;470.20;;;437.60;;
34072;SDS011;20346;52.702;16.886;2023-11-19T13:45:57;451.60;;;420.00;;
34072;SDS011;20346;52.702;16.886;2023-11-19T13:48:43;460.30;;;427.90;;
34072;SDS011;20346;52.702;16.886;2023-11-19T13:51:29;466.20;;;433.10;;
34072;SDS011;20346;52.702;16.886;2023-11-19T13:54:15;458.30;;;425.50;;
34072;SDS011;20346;52.702;16.886;2023-11-19T13:57:01;473.90;;;439.90;;
34072;SDS011;20346;52.702;16.886;2023-11-19T13:59:49;448.00;;;416.20;;
34072;SDS011;20346;52.702;16.886;2023-11-19T14:02:35;478.50;;;444.50;;
34072;SDS011;20346;52.702;16.886;2023-11-19T14:08:08;559.40;;;518.30;;
34072;SDS011;20346;52.702;16.886;2023-11-19T14:10:57;403.70;;;374.20;;
34072;SDS011;20346;52.702;16.886;2023-11-19T14:13:43;409.00;;;380.40;;
34072;SDS011;20346;52.702;16.886;2023-11-19T14:16:29;383.70;;;356.90;;
34072;SDS011;20346;52.702;16.886;2023-11-19T14:19:15;419.90;;;390.20;;
34072;SDS011;20346;52.702;16.886;2023-11-19T14:22:01;401.10;;;373.20;;
34072;SDS011;20346;52.702;16.886;2023-11-19T14:24:47;405.30;;;376.30;;
34072;SDS011;20346;52.702;16.886;2023-11-19T14:27:33;392.20;;;364.20;;
34072;SDS011;20346;52.702;16.886;2023-11-19T14:30:19;386.70;;;359.10;;
34072;SDS011;20346;52.702;16.886;2023-11-19T14:33:05;392.10;;;363.20;;
34072;SDS011;20346;52.702;16.886;2023-11-19T14:35:51;186.50;;;170.10;;
34072;SDS011;20346;52.702;16.886;2023-11-19T14:41:23;79.70;;;72.00;;
34072;SDS011;20346;52.702;16.886;2023-11-19T14:44:09;101.80;;;93.10;;
34072;SDS011;20346;52.702;16.886;2023-11-19T14:49:42;85.80;;;77.30;;
34072;SDS011;20346;52.702;16.886;2023-11-19T14:52:28;95.00;;;86.50;;
34072;SDS011;20346;52.702;16.886;2023-11-19T14:55:14;103.20;;;94.30;;
34072;SDS011;20346;52.702;16.886;2023-11-19T14:58:00;107.20;;;98.10;;
34072;SDS011;20346;52.702;16.886;2023-11-19T15:00:46;118.90;;;108.90;;
34072;SDS011;20346;52.702;16.886;2023-11-19T15:03:32;136.70;;;125.70;;
34072;SDS011;20346;52.702;16.886;2023-11-19T15:06:18;162.90;;;149.50;;
34072;SDS011;20346;52.702;16.886;2023-11-19T15:09:16;140.80;;;129.40;;
34072;SDS011;20346;52.702;16.886;2023-11-19T15:12:14;145.70;;;134.20;;
34072;SDS011;20346;52.702;16.886;2023-11-19T15:15:01;137.00;;;125.00;;
34072;SDS011;20346;52.702;16.886;2023-11-19T15:17:48;146.60;;;134.50;;
34072;SDS011;20346;52.702;16.886;2023-11-19T15:20:34;140.50;;;129.20;;
34072;SDS011;20346;52.702;16.886;2023-11-19T15:23:21;164.80;;;151.50;;
34072;SDS011;20346;52.702;16.886;2023-11-19T15:26:07;147.90;;;135.70;;
34072;SDS011;20346;52.702;16.886;2023-11-19T15:28:55;151.40;;;139.30;;
34072;SDS011;20346;52.702;16.886;2023-11-19T15:31:43;134.60;;;123.40;;
34072;SDS011;20346;52.702;16.886;2023-11-19T15:34:29;193.70;;;179.70;;
34072;SDS011;20346;52.702;16.886;2023-11-19T15:37:15;180.60;;;167.20;;
34072;SDS011;20346;52.702;16.886;2023-11-19T15:40:02;193.50;;;179.40;;
34072;SDS011;20346;52.702;16.886;2023-11-19T15:42:53;196.80;;;182.20;;
34072;SDS011;20346;52.702;16.886;2023-11-19T15:45:43;199.80;;;185.60;;
34072;SDS011;20346;52.702;16.886;2023-11-19T15:48:29;216.50;;;201.20;;
34072;SDS011;20346;52.702;16.886;2023-11-19T15:54:03;149.20;;;137.60;;
34072;SDS011;20346;52.702;16.886;2023-11-19T15:56:51;157.20;;;145.40;;
34072;SDS011;20346;52.702;16.886;2023-11-19T15:59:38;202.00;;;187.80;;
34072;SDS011;20346;52.702;16.886;2023-11-19T16:02:24;205.20;;;190.60;;
34072;SDS011;20346;52.702;16.886;2023-11-19T16:05:10;213.60;;;198.30;;
34072;SDS011;20346;52.702;16.886;2023-11-19T16:07:56;215.10;;;200.00;;
34072;SDS011;20346;52.702;16.886;2023-11-19T16:13:29;148.90;;;136.50;;
34072;SDS011;20346;52.702;16.886;2023-11-19T16:16:16;203.30;;;188.70;;
34072;SDS011;20346;52.702;16.886;2023-11-19T16:21:50;263.90;;;243.40;;
34072;SDS011;20346;52.702;16.886;2023-11-19T16:24:36;238.20;;;220.40;;
34072;SDS011;20346;52.702;16.886;2023-11-19T16:27:23;278.00;;;257.90;;
34072;SDS011;20346;52.702;16.886;2023-11-19T16:30:11;247.60;;;229.30;;
34072;SDS011;20346;52.702;16.886;2023-11-19T16:32:57;238.60;;;219.90;;
34072;SDS011;20346;52.702;16.886;2023-11-19T16:35:46;274.10;;;253.60;;
34072;SDS011;20346;52.702;16.886;2023-11-19T16:38:32;213.90;;;197.20;;
34072;SDS011;20346;52.702;16.886;2023-11-19T16:41:19;196.20;;;180.00;;
34072;SDS011;20346;52.702;16.886;2023-11-19T16:44:07;211.10;;;193.50;;
34072;SDS011;20346;52.702;16.886;2023-11-19T16:46:53;176.40;;;161.80;;
34072;SDS011;20346;52.702;16.886;2023-11-19T16:49:39;177.30;;;162.90;;
34072;SDS011;20346;52.702;16.886;2023-11-19T16:52:25;182.80;;;166.50;;
34072;SDS011;20346;52.702;16.886;2023-11-19T16:55:11;188.20;;;171.70;;
34072;SDS011;20346;52.702;16.886;2023-11-19T16:57:57;209.60;;;191.80;;
34072;SDS011;20346;52.702;16.886;2023-11-19T17:00:44;268.80;;;247.80;;
34072;SDS011;20346;52.702;16.886;2023-11-19T17:03:30;291.20;;;269.10;;
34072;SDS011;20346;52.702;16.886;2023-11-19T17:06:16;344.70;;;318.10;;
34072;SDS011;20346;52.702;16.886;2023-11-19T17:09:03;361.50;;;334.60;;
34072;SDS011;20346;52.702;16.886;2023-11-19T17:11:49;390.60;;;357.00;;
34072;SDS011;20346;52.702;16.886;2023-11-19T17:14:35;319.90;;;293.00;;
34072;SDS011;20346;52.702;16.886;2023-11-19T17:17:22;1238.50;;;999.90;;
34072;SDS011;20346;52.702;16.886;2023-11-19T17:20:08;1215.10;;;999.90;;
34072;SDS011;20346;52.702;16.886;2023-11-19T17:22:54;304.90;;;280.40;;
34072;SDS011;20346;52.702;16.886;2023-11-19T17:25:41;257.60;;;235.50;;
34072;SDS011;20346;52.702;16.886;2023-11-19T17:28:27;354.50;;;322.80;;
34072;SDS011;20346;52.702;16.886;2023-11-19T17:31:13;1098.20;;;985.20;;
34072;SDS011;20346;52.702;16.886;2023-11-19T17:39:31;1101.90;;;987.90;;
34072;SDS011;20346;52.702;16.886;2023-11-19T17:42:18;1075.00;;;968.30;;
34072;SDS011;20346;52.702;16.886;2023-11-19T17:45:04;1087.30;;;978.20;;
34072;SDS011;20346;52.702;16.886;2023-11-19T17:47:51;1071.90;;;964.90;;
34072;SDS011;20346;52.702;16.886;2023-11-19T17:50:37;1059.30;;;954.60;;
34072;SDS011;20346;52.702;16.886;2023-11-19T17:53:23;1045.50;;;943.70;;
34072;SDS011;20346;52.702;16.886;2023-11-19T17:56:09;1089.40;;;978.00;;
34072;SDS011;20346;52.702;16.886;2023-11-19T17:58:55;1051.10;;;949.10;;
34072;SDS011;20346;52.702;16.886;2023-11-19T18:01:42;1070.90;;;966.00;;
34072;SDS011;20346;52.702;16.886;2023-11-19T18:04:28;1057.80;;;954.50;;
34072;SDS011;20346;52.702;16.886;2023-11-19T18:07:17;1047.20;;;943.90;;
34072;SDS011;20346;52.702;16.886;2023-11-19T18:10:10;1144.60;;;999.90;;
34072;SDS011;20346;52.702;16.886;2023-11-19T18:12:56;1133.80;;;999.90;;
34072;SDS011;20346;52.702;16.886;2023-11-19T18:15:42;1137.00;;;999.90;;
34072;SDS011;20346;52.702;16.886;2023-11-19T18:18:29;1146.30;;;999.90;;
34072;SDS011;20346;52.702;16.886;2023-11-19T18:21:14;1128.50;;;999.90;;
34072;SDS011;20346;52.702;16.886;2023-11-19T18:24:00;1115.40;;;996.10;;
34072;SDS011;20346;52.702;16.886;2023-11-19T18:26:46;1120.30;;;999.50;;
34072;SDS011;20346;52.702;16.886;2023-11-19T18:29:32;1122.00;;;998.80;;
34072;SDS011;20346;52.702;16.886;2023-11-19T18:32:18;1119.80;;;998.80;;
34072;SDS011;20346;52.702;16.886;2023-11-19T18:35:05;1114.10;;;997.60;;
34072;SDS011;20346;52.702;16.886;2023-11-19T18:37:51;1139.00;;;999.90;;
34072;SDS011;20346;52.702;16.886;2023-11-19T18:40:37;1195.80;;;999.90;;
34072;SDS011;20346;52.702;16.886;2023-11-19T18:43:23;1157.20;;;999.90;;
34072;SDS011;20346;52.702;16.886;2023-11-19T18:46:11;1147.60;;;999.90;;
34072;SDS011;20346;52.702;16.886;2023-11-19T18:48:58;1155.90;;;999.90;;
34072;SDS011;20346;52.702;16.886;2023-11-19T18:57:17;814.50;;;743.50;;
34072;SDS011;20346;52.702;16.886;2023-11-19T19:00:04;1155.50;;;999.90;;
34072;SDS011;20346;52.702;16.886;2023-11-19T19:02:52;1161.70;;;999.90;;
34072;SDS011;20346;52.702;16.886;2023-11-19T19:05:38;860.50;;;786.70;;
34072;SDS011;20346;52.702;16.886;2023-11-19T19:08:25;883.70;;;804.80;;
34072;SDS011;20346;52.702;16.886;2023-11-19T19:11:12;940.40;;;854.70;;
34072;SDS011;20346;52.702;16.886;2023-11-19T19:13:59;944.90;;;856.60;;
34072;SDS011;20346;52.702;16.886;2023-11-19T19:16:46;910.70;;;830.70;;
34072;SDS011;20346;52.702;16.886;2023-11-19T19:19:32;1500.60;;;999.90;;
34072;SDS011;20346;52.702;16.886;2023-11-19T19:25:04;1468.00;;;999.90;;
34072;SDS011;20346;52.702;16.886;2023-11-19T19:27:51;1503.10;;;999.90;;
34072;SDS011;20346;52.702;16.886;2023-11-19T19:30:37;1556.50;;;999.90;;
34072;SDS011;20346;52.702;16.886;2023-11-19T19:33:23;852.60;;;782.80;;
34072;SDS011;20346;52.702;16.886;2023-11-19T19:36:09;1076.90;;;968.90;;
34072;SDS011;20346;52.702;16.886;2023-11-19T19:38:55;1013.00;;;917.90;;
34072;SDS011;20346;52.702;16.886;2023-11-19T19:41:41;1093.50;;;980.70;;
34072;SDS011;20346;52.702;16.886;2023-11-19T19:44:27;1095.00;;;981.70;;
34072;SDS011;20346;52.702;16.886;2023-11-19T19:47:13;1109.40;;;992.00;;
34072;SDS011;20346;52.702;16.886;2023-11-19T19:49:59;1119.40;;;996.10;;
34072;SDS011;20346;52.702;16.886;2023-11-19T19:52:46;1056.60;;;953.40;;
34072;SDS011;20346;52.702;16.886;2023-11-19T19:55:32;1145.80;;;999.90;;
34072;SDS011;20346;52.702;16.886;2023-11-19T19:58:18;1108.80;;;993.50;;
34072;SDS011;20346;52.702;16.886;2023-11-19T20:01:05;1173.30;;;999.90;;
34072;SDS011;20346;52.702;16.886;2023-11-19T20:03:53;1063.90;;;957.00;;
34072;SDS011;20346;52.702;16.886;2023-11-19T20:06:39;1141.20;;;999.40;;
34072;SDS011;20346;52.702;16.886;2023-11-19T20:09:25;1253.60;;;999.90;;
34072;SDS011;20346;52.702;16.886;2023-11-19T20:12:11;1305.90;;;999.90;;
34072;SDS011;20346;52.702;16.886;2023-11-19T20:14:57;1371.20;;;999.90;;
34072;SDS011;20346;52.702;16.886;2023-11-19T20:17:46;1133.60;;;999.90;;
34072;SDS011;20346;52.702;16.886;2023-11-19T20:20:32;1462.20;;;999.90;;
34072;SDS011;20346;52.702;16.886;2023-11-19T20:23:18;1433.10;;;999.90;;
34072;SDS011;20346;52.702;16.886;2023-11-19T20:26:04;1436.40;;;999.90;;
34072;SDS011;20346;52.702;16.886;2023-11-19T20:31:40;1301.20;;;999.90;;
34072;SDS011;20346;52.702;16.886;2023-11-19T20:34:27;1431.10;;;999.90;;
34072;SDS011;20346;52.702;16.886;2023-11-19T20:37:13;1376.80;;;999.90;;
34072;SDS011;20346;52.702;16.886;2023-11-19T20:39:59;1472.10;;;999.90;;
34072;SDS011;20346;52.702;16.886;2023-11-19T20:42:45;1550.90;;;999.90;;
34072;SDS011;20346;52.702;16.886;2023-11-19T20:45:31;1654.50;;;999.90;;
34072;SDS011;20346;52.702;16.886;2023-11-19T20:48:17;1625.00;;;999.90;;
34072;SDS011;20346;52.702;16.886;2023-11-19T20:51:04;1114.10;;;994.50;;
34072;SDS011;20346;52.702;16.886;2023-11-19T20:53:50;1106.70;;;989.10;;
34072;SDS011;20346;52.702;16.886;2023-11-19T20:56:36;1120.40;;;998.10;;
34072;SDS011;20346;52.702;16.886;2023-11-19T20:59:22;1114.50;;;993.60;;
34072;SDS011;20346;52.702;16.886;2023-11-19T21:04:55;1235.50;;;999.90;;
34072;SDS011;20346;52.702;16.886;2023-11-19T21:07:40;1350.30;;;999.90;;
34072;SDS011;20346;52.702;16.886;2023-11-19T21:10:26;1498.40;;;999.90;;
34072;SDS011;20346;52.702;16.886;2023-11-19T21:16:02;1412.10;;;999.90;;
34072;SDS011;20346;52.702;16.886;2023-11-19T21:18:48;1406.80;;;999.90;;
34072;SDS011;20346;52.702;16.886;2023-11-19T21:21:34;1552.50;;;999.90;;
34072;SDS011;20346;52.702;16.886;2023-11-19T21:27:06;1528.20;;;999.90;;
34072;SDS011;20346;52.702;16.886;2023-11-19T21:29:53;1607.00;;;999.90;;
34072;SDS011;20346;52.702;16.886;2023-11-19T21:32:40;1453.60;;;999.90;;
34072;SDS011;20346;52.702;16.886;2023-11-19T21:35:27;1599.20;;;999.90;;
34072;SDS011;20346;52.702;16.886;2023-11-19T21:38:13;1696.20;;;999.90;;
34072;SDS011;20346;52.702;16.886;2023-11-19T21:41:00;1948.50;;;999.90;;
34072;SDS011;20346;52.702;16.886;2023-11-19T21:43:46;1698.30;;;999.90;;
34072;SDS011;20346;52.702;16.886;2023-11-19T21:46:32;1819.20;;;999.90;;
34072;SDS011;20346;52.702;16.886;2023-11-19T21:49:19;773.50;;;710.30;;
34072;SDS011;20346;52.702;16.886;2023-11-19T21:52:05;772.30;;;710.10;;
34072;SDS011;20346;52.702;16.886;2023-11-19T21:54:51;712.60;;;657.70;;
34072;SDS011;20346;52.702;16.886;2023-11-19T21:57:38;768.90;;;707.10;;
34072;SDS011;20346;52.702;16.886;2023-11-19T22:00:26;680.30;;;626.50;;
34072;SDS011;20346;52.702;16.886;2023-11-19T22:03:12;757.00;;;696.30;;
34072;SDS011;20346;52.702;16.886;2023-11-19T22:05:58;697.00;;;642.10;;
34072;SDS011;20346;52.702;16.886;2023-11-19T22:08:45;695.40;;;640.70;;
34072;SDS011;20346;52.702;16.886;2023-11-19T22:11:32;727.00;;;668.40;;
34072;SDS011;20346;52.702;16.886;2023-11-19T22:14:18;645.20;;;594.30;;
34072;SDS011;20346;52.702;16.886;2023-11-19T22:17:04;721.80;;;664.00;;
34072;SDS011;20346;52.702;16.886;2023-11-19T22:19:50;696.70;;;641.70;;
34072;SDS011;20346;52.702;16.886;2023-11-19T22:25:24;526.50;;;485.60;;
34072;SDS011;20346;52.702;16.886;2023-11-19T22:28:12;677.60;;;624.80;;
34072;SDS011;20346;52.702;16.886;2023-11-19T22:31:00;729.90;;;672.10;;
34072;SDS011;20346;52.702;16.886;2023-11-19T22:33:46;708.70;;;654.20;;
34072;SDS011;20346;52.702;16.886;2023-11-19T22:36:34;575.40;;;529.00;;
34072;SDS011;20346;52.702;16.886;2023-11-19T22:39:21;738.30;;;679.60;;
34072;SDS011;20346;52.702;16.886;2023-11-19T22:42:07;745.10;;;686.50;;
34072;SDS011;20346;52.702;16.886;2023-11-19T22:44:53;717.20;;;659.70;;
34072;SDS011;20346;52.702;16.886;2023-11-19T22:47:39;741.20;;;682.60;;
34072;SDS011;20346;52.702;16.886;2023-11-19T22:50:26;776.70;;;713.50;;
34072;SDS011;20346;52.702;16.886;2023-11-19T22:53:12;780.10;;;717.10;;
34072;SDS011;20346;52.702;16.886;2023-11-19T23:01:35;599.10;;;553.50;;
34072;SDS011;20346;52.702;16.886;2023-11-19T23:07:09;1017.80;;;908.30;;
34072;SDS011;20346;52.702;16.886;2023-11-19T23:09:55;1451.30;;;999.90;;
34072;SDS011;20346;52.702;16.886;2023-11-19T23:12:42;1500.70;;;999.90;;
34072;SDS011;20346;52.702;16.886;2023-11-19T23:15:29;1825.90;;;999.90;;
34072;SDS011;20346;52.702;16.886;2023-11-19T23:18:16;1865.90;;;999.90;;
34072;SDS011;20346;52.702;16.886;2023-11-19T23:23:49;1430.80;;;999.90;;
34072;SDS011;20346;52.702;16.886;2023-11-19T23:26:35;1868.40;;;999.90;;
34072;SDS011;20346;52.702;16.886;2023-11-19T23:32:07;1632.30;;;999.90;;
34072;SDS011;20346;52.702;16.886;2023-11-19T23:34:54;1920.20;;;999.90;;
34072;SDS011;20346;52.702;16.886;2023-11-19T23:37:40;1890.70;;;999.90;;
34072;SDS011;20346;52.702;16.886;2023-11-19T23:40:27;1987.00;;;999.90;;
34072;SDS011;20346;52.702;16.886;2023-11-19T23:43:13;1464.40;;;999.90;;
34072;SDS011;20346;52.702;16.886;2023-11-19T23:45:59;1985.80;;;999.90;;
34072;SDS011;20346;52.702;16.886;2023-11-19T23:48:46;1970.10;;;999.90;;
34072;SDS011;20346;52.702;16.886;2023-11-19T23:51:33;1962.60;;;999.90;;
34072;SDS011;20346;52.702;16.886;2023-11-19T23:54:22;1991.60;;;999.90;;
34072;SDS011;20346;52.702;16.886;2023-11-19T23:57:08;1998.70;;;999.90;;
34072;SDS011;20346;52.702;16.886;2023-11-19T23:59:54;1820.40;;;999.90;;
